sensor_id;sensor_type;location;lat;lon;timestamp;P1;durP1;ratioP1;P2;durP2;ratioP2
58760;SDS011;44529;47.464;19.014;2023-04-24T00:01:33;11.65;;;6.87;;
58760;SDS011;44529;47.464;19.014;2023-04-24T00:04:37;8.02;;;7.07;;
58760;SDS011;44529;47.464;19.014;2023-04-24T00:07:42;11.12;;;6.87;;
58760;SDS011;44529;47.464;19.014;2023-04-24T00:10:46;9.95;;;7.05;;
58760;SDS011;44529;47.464;19.014;2023-04-24T00:13:49;8.73;;;6.90;;
58760;SDS011;44529;47.464;19.014;2023-04-24T00:16:51;8.20;;;6.62;;
58760;SDS011;44529;47.464;19.014;2023-04-24T00:19:53;9.95;;;7.37;;
58760;SDS011;44529;47.464;19.014;2023-04-24T00:23:03;8.45;;;7.32;;
58760;SDS011;44529;47.464;19.014;2023-04-24T00:26:05;13.10;;;7.28;;
58760;SDS011;44529;47.464;19.014;2023-04-24T00:29:07;7.93;;;7.12;;
58760;SDS011;44529;47.464;19.014;2023-04-24T00:32:10;12.88;;;7.40;;
58760;SDS011;44529;47.464;19.014;2023-04-24T00:35:13;10.95;;;7.60;;
58760;SDS011;44529;47.464;19.014;2023-04-24T00:38:17;8.05;;;7.12;;
58760;SDS011;44529;47.464;19.014;2023-04-24T00:41:21;9.02;;;7.28;;
58760;SDS011;44529;47.464;19.014;2023-04-24T00:44:23;9.65;;;7.05;;
58760;SDS011;44529;47.464;19.014;2023-04-24T00:47:27;10.40;;;7.80;;
58760;SDS011;44529;47.464;19.014;2023-04-24T00:50:30;9.45;;;7.25;;
58760;SDS011;44529;47.464;19.014;2023-04-24T00:53:33;10.98;;;7.50;;
58760;SDS011;44529;47.464;19.014;2023-04-24T00:56:35;10.30;;;7.12;;
58760;SDS011;44529;47.464;19.014;2023-04-24T00:59:38;8.43;;;7.00;;
58760;SDS011;44529;47.464;19.014;2023-04-24T01:02:43;13.85;;;7.62;;
58760;SDS011;44529;47.464;19.014;2023-04-24T01:05:47;8.88;;;7.18;;
58760;SDS011;44529;47.464;19.014;2023-04-24T01:08:51;9.90;;;6.90;;
58760;SDS011;44529;47.464;19.014;2023-04-24T01:11:53;8.65;;;7.65;;
58760;SDS011;44529;47.464;19.014;2023-04-24T01:14:56;8.05;;;7.25;;
58760;SDS011;44529;47.464;19.014;2023-04-24T01:17:58;8.82;;;6.85;;
58760;SDS011;44529;47.464;19.014;2023-04-24T01:21:02;9.10;;;7.78;;
58760;SDS011;44529;47.464;19.014;2023-04-24T01:24:06;10.13;;;7.28;;
58760;SDS011;44529;47.464;19.014;2023-04-24T01:27:09;8.52;;;7.00;;
58760;SDS011;44529;47.464;19.014;2023-04-24T01:30:12;7.75;;;6.57;;
58760;SDS011;44529;47.464;19.014;2023-04-24T01:33:15;8.90;;;6.97;;
58760;SDS011;44529;47.464;19.014;2023-04-24T01:36:18;9.68;;;7.32;;
58760;SDS011;44529;47.464;19.014;2023-04-24T01:39:21;8.52;;;7.62;;
58760;SDS011;44529;47.464;19.014;2023-04-24T01:42:25;11.05;;;7.93;;
58760;SDS011;44529;47.464;19.014;2023-04-24T01:45:28;12.98;;;9.00;;
58760;SDS011;44529;47.464;19.014;2023-04-24T01:48:30;12.50;;;8.82;;
58760;SDS011;44529;47.464;19.014;2023-04-24T01:51:33;10.40;;;9.20;;
58760;SDS011;44529;47.464;19.014;2023-04-24T01:54:37;15.43;;;10.70;;
58760;SDS011;44529;47.464;19.014;2023-04-24T01:57:39;11.98;;;9.95;;
58760;SDS011;44529;47.464;19.014;2023-04-24T02:00:42;13.82;;;10.68;;
58760;SDS011;44529;47.464;19.014;2023-04-24T02:03:44;11.15;;;10.00;;
58760;SDS011;44529;47.464;19.014;2023-04-24T02:06:47;14.57;;;10.45;;
58760;SDS011;44529;47.464;19.014;2023-04-24T02:09:50;12.80;;;9.95;;
58760;SDS011;44529;47.464;19.014;2023-04-24T02:12:52;12.65;;;10.20;;
58760;SDS011;44529;47.464;19.014;2023-04-24T02:15:58;11.82;;;10.30;;
58760;SDS011;44529;47.464;19.014;2023-04-24T02:19:00;11.38;;;9.98;;
58760;SDS011;44529;47.464;19.014;2023-04-24T02:22:03;12.30;;;9.48;;
58760;SDS011;44529;47.464;19.014;2023-04-24T02:25:05;12.05;;;9.68;;
58760;SDS011;44529;47.464;19.014;2023-04-24T02:28:08;16.27;;;10.25;;
58760;SDS011;44529;47.464;19.014;2023-04-24T02:31:10;11.77;;;10.63;;
58760;SDS011;44529;47.464;19.014;2023-04-24T02:34:13;13.18;;;11.20;;
58760;SDS011;44529;47.464;19.014;2023-04-24T02:37:15;13.68;;;10.73;;
58760;SDS011;44529;47.464;19.014;2023-04-24T02:40:18;11.98;;;10.57;;
58760;SDS011;44529;47.464;19.014;2023-04-24T02:43:21;19.27;;;11.02;;
58760;SDS011;44529;47.464;19.014;2023-04-24T02:46:24;15.43;;;11.48;;
58760;SDS011;44529;47.464;19.014;2023-04-24T02:49:27;12.60;;;11.32;;
58760;SDS011;44529;47.464;19.014;2023-04-24T02:52:29;12.55;;;11.30;;
58760;SDS011;44529;47.464;19.014;2023-04-24T02:55:32;12.75;;;10.88;;
58760;SDS011;44529;47.464;19.014;2023-04-24T02:58:34;12.65;;;10.65;;
58760;SDS011;44529;47.464;19.014;2023-04-24T03:01:37;15.60;;;9.95;;
58760;SDS011;44529;47.464;19.014;2023-04-24T03:04:39;12.10;;;10.63;;
58760;SDS011;44529;47.464;19.014;2023-04-24T03:07:42;12.15;;;10.95;;
58760;SDS011;44529;47.464;19.014;2023-04-24T03:10:45;14.50;;;10.90;;
58760;SDS011;44529;47.464;19.014;2023-04-24T03:13:49;13.20;;;10.55;;
58760;SDS011;44529;47.464;19.014;2023-04-24T03:16:52;12.13;;;10.93;;
58760;SDS011;44529;47.464;19.014;2023-04-24T03:19:54;13.50;;;10.85;;
58760;SDS011;44529;47.464;19.014;2023-04-24T03:22:57;13.40;;;11.52;;
58760;SDS011;44529;47.464;19.014;2023-04-24T03:26:00;13.55;;;11.15;;
58760;SDS011;44529;47.464;19.014;2023-04-24T03:29:02;12.37;;;11.07;;
58760;SDS011;44529;47.464;19.014;2023-04-24T03:32:05;11.20;;;9.98;;
58760;SDS011;44529;47.464;19.014;2023-04-24T03:35:08;14.77;;;11.18;;
58760;SDS011;44529;47.464;19.014;2023-04-24T03:38:11;13.98;;;11.48;;
58760;SDS011;44529;47.464;19.014;2023-04-24T03:41:15;12.35;;;11.15;;
58760;SDS011;44529;47.464;19.014;2023-04-24T03:44:19;15.10;;;12.55;;
58760;SDS011;44529;47.464;19.014;2023-04-24T03:47:22;15.57;;;12.23;;
58760;SDS011;44529;47.464;19.014;2023-04-24T03:50:24;13.70;;;12.07;;
58760;SDS011;44529;47.464;19.014;2023-04-24T03:53:29;12.63;;;11.25;;
58760;SDS011;44529;47.464;19.014;2023-04-24T03:56:31;13.50;;;11.98;;
58760;SDS011;44529;47.464;19.014;2023-04-24T03:59:34;14.85;;;11.70;;
58760;SDS011;44529;47.464;19.014;2023-04-24T04:02:38;12.37;;;11.18;;
58760;SDS011;44529;47.464;19.014;2023-04-24T04:05:42;13.15;;;11.35;;
58760;SDS011;44529;47.464;19.014;2023-04-24T04:08:44;12.73;;;11.43;;
58760;SDS011;44529;47.464;19.014;2023-04-24T04:11:47;14.10;;;11.02;;
58760;SDS011;44529;47.464;19.014;2023-04-24T04:14:49;14.15;;;11.57;;
58760;SDS011;44529;47.464;19.014;2023-04-24T04:17:52;17.83;;;11.52;;
58760;SDS011;44529;47.464;19.014;2023-04-24T04:20:55;15.48;;;11.88;;
58760;SDS011;44529;47.464;19.014;2023-04-24T04:23:59;13.13;;;11.48;;
58760;SDS011;44529;47.464;19.014;2023-04-24T04:27:02;16.35;;;11.98;;
58760;SDS011;44529;47.464;19.014;2023-04-24T04:30:05;13.52;;;10.80;;
58760;SDS011;44529;47.464;19.014;2023-04-24T04:33:08;14.70;;;11.63;;
58760;SDS011;44529;47.464;19.014;2023-04-24T04:36:11;16.08;;;11.60;;
58760;SDS011;44529;47.464;19.014;2023-04-24T04:39:15;18.05;;;11.43;;
58760;SDS011;44529;47.464;19.014;2023-04-24T04:42:19;16.75;;;11.50;;
58760;SDS011;44529;47.464;19.014;2023-04-24T04:45:22;13.98;;;11.30;;
58760;SDS011;44529;47.464;19.014;2023-04-24T04:48:28;12.37;;;10.27;;
58760;SDS011;44529;47.464;19.014;2023-04-24T04:51:31;14.60;;;11.18;;
58760;SDS011;44529;47.464;19.014;2023-04-24T04:54:34;11.40;;;10.38;;
58760;SDS011;44529;47.464;19.014;2023-04-24T04:57:36;12.05;;;10.75;;
58760;SDS011;44529;47.464;19.014;2023-04-24T05:00:39;18.87;;;10.38;;
58760;SDS011;44529;47.464;19.014;2023-04-24T05:03:45;17.45;;;11.35;;
58760;SDS011;44529;47.464;19.014;2023-04-24T05:06:48;12.05;;;10.82;;
58760;SDS011;44529;47.464;19.014;2023-04-24T05:09:53;14.10;;;10.90;;
58760;SDS011;44529;47.464;19.014;2023-04-24T05:12:55;13.27;;;10.88;;
58760;SDS011;44529;47.464;19.014;2023-04-24T05:15:58;12.02;;;10.80;;
58760;SDS011;44529;47.464;19.014;2023-04-24T05:19:01;11.65;;;10.45;;
58760;SDS011;44529;47.464;19.014;2023-04-24T05:22:03;11.77;;;10.57;;
58760;SDS011;44529;47.464;19.014;2023-04-24T05:25:10;12.13;;;10.80;;
58760;SDS011;44529;47.464;19.014;2023-04-24T05:28:14;12.93;;;10.68;;
58760;SDS011;44529;47.464;19.014;2023-04-24T05:31:18;13.32;;;11.02;;
58760;SDS011;44529;47.464;19.014;2023-04-24T05:34:20;14.38;;;10.52;;
58760;SDS011;44529;47.464;19.014;2023-04-24T05:37:24;12.05;;;10.57;;
58760;SDS011;44529;47.464;19.014;2023-04-24T05:40:26;14.90;;;11.20;;
58760;SDS011;44529;47.464;19.014;2023-04-24T05:43:29;13.93;;;12.13;;
58760;SDS011;44529;47.464;19.014;2023-04-24T05:46:31;16.77;;;10.65;;
58760;SDS011;44529;47.464;19.014;2023-04-24T05:49:34;16.58;;;11.85;;
58760;SDS011;44529;47.464;19.014;2023-04-24T05:52:36;15.50;;;11.85;;
58760;SDS011;44529;47.464;19.014;2023-04-24T05:55:40;11.75;;;10.65;;
58760;SDS011;44529;47.464;19.014;2023-04-24T05:58:42;13.07;;;10.82;;
58760;SDS011;44529;47.464;19.014;2023-04-24T06:01:45;12.85;;;10.35;;
58760;SDS011;44529;47.464;19.014;2023-04-24T06:04:48;17.05;;;11.65;;
58760;SDS011;44529;47.464;19.014;2023-04-24T06:07:51;15.07;;;10.93;;
58760;SDS011;44529;47.464;19.014;2023-04-24T06:10:55;15.73;;;11.18;;
58760;SDS011;44529;47.464;19.014;2023-04-24T06:13:57;15.00;;;10.98;;
58760;SDS011;44529;47.464;19.014;2023-04-24T06:17:03;23.58;;;11.30;;
58760;SDS011;44529;47.464;19.014;2023-04-24T06:20:07;15.98;;;10.52;;
58760;SDS011;44529;47.464;19.014;2023-04-24T06:23:10;13.65;;;10.80;;
58760;SDS011;44529;47.464;19.014;2023-04-24T06:26:12;13.20;;;11.30;;
58760;SDS011;44529;47.464;19.014;2023-04-24T06:29:15;13.70;;;11.50;;
58760;SDS011;44529;47.464;19.014;2023-04-24T06:32:17;15.82;;;12.20;;
58760;SDS011;44529;47.464;19.014;2023-04-24T06:35:21;12.25;;;11.02;;
58760;SDS011;44529;47.464;19.014;2023-04-24T06:38:30;16.23;;;12.10;;
58760;SDS011;44529;47.464;19.014;2023-04-24T06:41:32;15.93;;;11.93;;
58760;SDS011;44529;47.464;19.014;2023-04-24T06:44:35;15.82;;;11.98;;
58760;SDS011;44529;47.464;19.014;2023-04-24T06:47:43;13.82;;;11.43;;
58760;SDS011;44529;47.464;19.014;2023-04-24T06:50:45;14.63;;;11.85;;
58760;SDS011;44529;47.464;19.014;2023-04-24T06:53:49;12.82;;;10.45;;
58760;SDS011;44529;47.464;19.014;2023-04-24T06:56:53;11.77;;;10.68;;
58760;SDS011;44529;47.464;19.014;2023-04-24T06:59:55;11.98;;;10.65;;
58760;SDS011;44529;47.464;19.014;2023-04-24T07:02:58;13.20;;;10.30;;
58760;SDS011;44529;47.464;19.014;2023-04-24T07:06:00;13.20;;;10.98;;
58760;SDS011;44529;47.464;19.014;2023-04-24T07:09:03;12.15;;;11.00;;
58760;SDS011;44529;47.464;19.014;2023-04-24T07:12:05;16.20;;;11.98;;
58760;SDS011;44529;47.464;19.014;2023-04-24T07:15:09;14.32;;;12.23;;
58760;SDS011;44529;47.464;19.014;2023-04-24T07:18:12;16.42;;;12.00;;
58760;SDS011;44529;47.464;19.014;2023-04-24T07:21:15;12.57;;;11.27;;
58760;SDS011;44529;47.464;19.014;2023-04-24T07:24:24;16.25;;;11.65;;
58760;SDS011;44529;47.464;19.014;2023-04-24T07:27:27;13.55;;;11.18;;
58760;SDS011;44529;47.464;19.014;2023-04-24T07:30:35;12.20;;;10.68;;
58760;SDS011;44529;47.464;19.014;2023-04-24T07:33:37;12.37;;;11.18;;
58760;SDS011;44529;47.464;19.014;2023-04-24T07:36:45;13.27;;;10.60;;
58760;SDS011;44529;47.464;19.014;2023-04-24T07:39:48;11.70;;;10.48;;
58760;SDS011;44529;47.464;19.014;2023-04-24T07:42:50;11.70;;;10.50;;
58760;SDS011;44529;47.464;19.014;2023-04-24T07:45:52;13.73;;;11.10;;
58760;SDS011;44529;47.464;19.014;2023-04-24T07:48:55;13.82;;;10.48;;
58760;SDS011;44529;47.464;19.014;2023-04-24T07:52:02;12.40;;;10.80;;
58760;SDS011;44529;47.464;19.014;2023-04-24T07:55:05;12.88;;;10.60;;
58760;SDS011;44529;47.464;19.014;2023-04-24T07:58:08;13.07;;;10.57;;
58760;SDS011;44529;47.464;19.014;2023-04-24T08:01:11;12.82;;;9.93;;
58760;SDS011;44529;47.464;19.014;2023-04-24T08:04:15;11.93;;;10.52;;
58760;SDS011;44529;47.464;19.014;2023-04-24T08:07:17;11.90;;;9.98;;
58760;SDS011;44529;47.464;19.014;2023-04-24T08:10:22;10.63;;;9.63;;
58760;SDS011;44529;47.464;19.014;2023-04-24T08:13:25;10.73;;;9.10;;
58760;SDS011;44529;47.464;19.014;2023-04-24T08:16:27;14.23;;;9.85;;
58760;SDS011;44529;47.464;19.014;2023-04-24T08:19:30;10.35;;;9.35;;
58760;SDS011;44529;47.464;19.014;2023-04-24T08:22:32;11.40;;;9.95;;
58760;SDS011;44529;47.464;19.014;2023-04-24T08:25:34;11.73;;;10.50;;
58760;SDS011;44529;47.464;19.014;2023-04-24T08:28:37;13.50;;;10.10;;
58760;SDS011;44529;47.464;19.014;2023-04-24T08:31:39;11.63;;;9.63;;
58760;SDS011;44529;47.464;19.014;2023-04-24T08:34:42;12.57;;;10.18;;
58760;SDS011;44529;47.464;19.014;2023-04-24T08:37:44;11.20;;;10.15;;
58760;SDS011;44529;47.464;19.014;2023-04-24T08:40:47;13.52;;;10.43;;
58760;SDS011;44529;47.464;19.014;2023-04-24T08:43:56;13.07;;;10.75;;
58760;SDS011;44529;47.464;19.014;2023-04-24T08:47:04;11.88;;;10.35;;
58760;SDS011;44529;47.464;19.014;2023-04-24T08:50:07;12.23;;;10.25;;
58760;SDS011;44529;47.464;19.014;2023-04-24T08:53:11;13.27;;;10.45;;
58760;SDS011;44529;47.464;19.014;2023-04-24T08:56:13;14.63;;;9.50;;
58760;SDS011;44529;47.464;19.014;2023-04-24T08:59:21;10.88;;;9.68;;
58760;SDS011;44529;47.464;19.014;2023-04-24T09:02:23;11.63;;;9.75;;
58760;SDS011;44529;47.464;19.014;2023-04-24T09:05:33;10.60;;;9.60;;
58760;SDS011;44529;47.464;19.014;2023-04-24T09:08:40;10.45;;;9.23;;
58760;SDS011;44529;47.464;19.014;2023-04-24T09:11:49;11.57;;;9.38;;
58760;SDS011;44529;47.464;19.014;2023-04-24T09:14:57;11.52;;;9.25;;
58760;SDS011;44529;47.464;19.014;2023-04-24T09:18:05;11.60;;;9.07;;
58760;SDS011;44529;47.464;19.014;2023-04-24T09:21:08;11.68;;;9.07;;
58760;SDS011;44529;47.464;19.014;2023-04-24T09:24:17;13.45;;;8.95;;
58760;SDS011;44529;47.464;19.014;2023-04-24T09:27:24;8.48;;;7.47;;
58760;SDS011;44529;47.464;19.014;2023-04-24T09:30:27;9.07;;;7.78;;
58760;SDS011;44529;47.464;19.014;2023-04-24T09:33:29;9.73;;;7.70;;
58760;SDS011;44529;47.464;19.014;2023-04-24T09:36:39;11.85;;;7.55;;
58760;SDS011;44529;47.464;19.014;2023-04-24T09:39:43;10.45;;;7.37;;
58760;SDS011;44529;47.464;19.014;2023-04-24T09:42:46;9.15;;;7.32;;
58760;SDS011;44529;47.464;19.014;2023-04-24T09:45:57;9.38;;;7.03;;
58760;SDS011;44529;47.464;19.014;2023-04-24T09:49:08;9.75;;;7.80;;
58760;SDS011;44529;47.464;19.014;2023-04-24T09:52:12;10.43;;;7.62;;
58760;SDS011;44529;47.464;19.014;2023-04-24T09:55:16;20.40;;;7.47;;
58760;SDS011;44529;47.464;19.014;2023-04-24T09:58:24;13.68;;;6.85;;
58760;SDS011;44529;47.464;19.014;2023-04-24T10:01:31;7.25;;;6.47;;
58760;SDS011;44529;47.464;19.014;2023-04-24T10:04:35;9.13;;;7.03;;
58760;SDS011;44529;47.464;19.014;2023-04-24T10:07:37;9.38;;;6.10;;
58760;SDS011;44529;47.464;19.014;2023-04-24T10:10:43;8.73;;;6.72;;
58760;SDS011;44529;47.464;19.014;2023-04-24T10:13:47;11.75;;;8.20;;
58760;SDS011;44529;47.464;19.014;2023-04-24T10:16:50;9.43;;;6.72;;
58760;SDS011;44529;47.464;19.014;2023-04-24T10:19:58;8.95;;;7.50;;
58760;SDS011;44529;47.464;19.014;2023-04-24T10:23:03;21.67;;;8.57;;
58760;SDS011;44529;47.464;19.014;2023-04-24T10:26:08;10.48;;;8.23;;
58760;SDS011;44529;47.464;19.014;2023-04-24T10:29:12;8.48;;;7.53;;
58760;SDS011;44529;47.464;19.014;2023-04-24T10:32:17;10.65;;;7.70;;
58760;SDS011;44529;47.464;19.014;2023-04-24T10:35:20;11.80;;;8.05;;
58760;SDS011;44529;47.464;19.014;2023-04-24T10:38:24;9.55;;;7.90;;
58760;SDS011;44529;47.464;19.014;2023-04-24T10:41:29;9.23;;;8.32;;
58760;SDS011;44529;47.464;19.014;2023-04-24T10:44:36;9.50;;;7.68;;
58760;SDS011;44529;47.464;19.014;2023-04-24T10:47:39;12.57;;;8.20;;
58760;SDS011;44529;47.464;19.014;2023-04-24T10:51:18;10.00;;;7.90;;
58760;SDS011;44529;47.464;19.014;2023-04-24T10:57:36;9.25;;;7.78;;
58760;SDS011;44529;47.464;19.014;2023-04-24T11:00:39;32.97;;;9.25;;
58760;SDS011;44529;47.464;19.014;2023-04-24T11:03:50;9.85;;;8.40;;
58760;SDS011;44529;47.464;19.014;2023-04-24T11:06:57;11.30;;;8.50;;
58760;SDS011;44529;47.464;19.014;2023-04-24T11:10:00;10.32;;;8.95;;
58760;SDS011;44529;47.464;19.014;2023-04-24T11:13:03;11.15;;;8.32;;
58760;SDS011;44529;47.464;19.014;2023-04-24T11:16:12;10.30;;;9.10;;
58760;SDS011;44529;47.464;19.014;2023-04-24T11:19:41;8.52;;;7.72;;
58760;SDS011;44529;47.464;19.014;2023-04-24T11:22:44;9.52;;;7.95;;
58760;SDS011;44529;47.464;19.014;2023-04-24T11:26:09;10.23;;;8.10;;
58760;SDS011;44529;47.464;19.014;2023-04-24T11:29:13;12.07;;;8.95;;
58760;SDS011;44529;47.464;19.014;2023-04-24T11:35:34;11.48;;;9.55;;
58760;SDS011;44529;47.464;19.014;2023-04-24T11:38:39;13.52;;;9.82;;
58760;SDS011;44529;47.464;19.014;2023-04-24T11:41:42;10.55;;;9.45;;
58760;SDS011;44529;47.464;19.014;2023-04-24T11:44:45;10.40;;;9.00;;
58760;SDS011;44529;47.464;19.014;2023-04-24T11:47:52;12.20;;;9.45;;
58760;SDS011;44529;47.464;19.014;2023-04-24T11:50:55;9.77;;;8.77;;
58760;SDS011;44529;47.464;19.014;2023-04-24T11:53:58;14.68;;;8.95;;
58760;SDS011;44529;47.464;19.014;2023-04-24T11:57:06;10.15;;;8.68;;
58760;SDS011;44529;47.464;19.014;2023-04-24T12:00:09;10.05;;;7.55;;
58760;SDS011;44529;47.464;19.014;2023-04-24T12:03:18;7.80;;;6.78;;
58760;SDS011;44529;47.464;19.014;2023-04-24T12:06:21;8.20;;;7.03;;
58760;SDS011;44529;47.464;19.014;2023-04-24T12:09:24;12.35;;;6.85;;
58760;SDS011;44529;47.464;19.014;2023-04-24T12:12:27;8.57;;;5.87;;
58760;SDS011;44529;47.464;19.014;2023-04-24T12:15:30;9.38;;;8.48;;
58760;SDS011;44529;47.464;19.014;2023-04-24T12:18:32;11.10;;;10.00;;
58760;SDS011;44529;47.464;19.014;2023-04-24T12:21:35;14.27;;;9.77;;
58760;SDS011;44529;47.464;19.014;2023-04-24T12:24:55;11.32;;;10.23;;
58760;SDS011;44529;47.464;19.014;2023-04-24T12:28:11;9.88;;;8.98;;
58760;SDS011;44529;47.464;19.014;2023-04-24T12:31:14;12.48;;;9.45;;
58760;SDS011;44529;47.464;19.014;2023-04-24T12:34:19;14.98;;;9.18;;
58760;SDS011;44529;47.464;19.014;2023-04-24T12:37:23;11.98;;;9.38;;
58760;SDS011;44529;47.464;19.014;2023-04-24T12:40:29;11.32;;;9.13;;
58760;SDS011;44529;47.464;19.014;2023-04-24T12:43:33;11.27;;;8.82;;
58760;SDS011;44529;47.464;19.014;2023-04-24T12:46:36;10.80;;;8.32;;
58760;SDS011;44529;47.464;19.014;2023-04-24T12:49:38;13.07;;;7.97;;
58760;SDS011;44529;47.464;19.014;2023-04-24T12:52:41;12.45;;;7.47;;
58760;SDS011;44529;47.464;19.014;2023-04-24T12:55:44;9.60;;;7.15;;
58760;SDS011;44529;47.464;19.014;2023-04-24T12:58:54;9.07;;;6.40;;
58760;SDS011;44529;47.464;19.014;2023-04-24T13:01:56;9.35;;;6.53;;
58760;SDS011;44529;47.464;19.014;2023-04-24T13:04:59;7.47;;;5.97;;
58760;SDS011;44529;47.464;19.014;2023-04-24T13:08:02;6.90;;;5.85;;
58760;SDS011;44529;47.464;19.014;2023-04-24T13:11:05;5.70;;;5.10;;
58760;SDS011;44529;47.464;19.014;2023-04-24T13:14:07;8.27;;;5.40;;
58760;SDS011;44529;47.464;19.014;2023-04-24T13:17:09;8.52;;;5.60;;
58760;SDS011;44529;47.464;19.014;2023-04-24T13:20:13;10.82;;;5.10;;
58760;SDS011;44529;47.464;19.014;2023-04-24T13:23:16;7.10;;;5.15;;
58760;SDS011;44529;47.464;19.014;2023-04-24T13:26:18;5.65;;;4.32;;
58760;SDS011;44529;47.464;19.014;2023-04-24T13:29:22;8.80;;;4.25;;
58760;SDS011;44529;47.464;19.014;2023-04-24T13:32:24;12.07;;;5.00;;
58760;SDS011;44529;47.464;19.014;2023-04-24T13:35:27;8.88;;;4.43;;
58760;SDS011;44529;47.464;19.014;2023-04-24T13:38:30;4.72;;;4.30;;
58760;SDS011;44529;47.464;19.014;2023-04-24T13:41:32;4.85;;;4.25;;
58760;SDS011;44529;47.464;19.014;2023-04-24T13:44:35;5.53;;;4.03;;
58760;SDS011;44529;47.464;19.014;2023-04-24T13:47:37;4.82;;;4.32;;
58760;SDS011;44529;47.464;19.014;2023-04-24T13:50:42;5.85;;;3.78;;
58760;SDS011;44529;47.464;19.014;2023-04-24T13:53:45;5.35;;;4.25;;
58760;SDS011;44529;47.464;19.014;2023-04-24T13:56:47;8.45;;;4.62;;
58760;SDS011;44529;47.464;19.014;2023-04-24T13:59:49;11.60;;;5.82;;
58760;SDS011;44529;47.464;19.014;2023-04-24T14:02:52;12.93;;;7.00;;
58760;SDS011;44529;47.464;19.014;2023-04-24T14:05:54;25.00;;;9.02;;
58760;SDS011;44529;47.464;19.014;2023-04-24T14:08:56;12.57;;;7.75;;
58760;SDS011;44529;47.464;19.014;2023-04-24T14:11:59;12.27;;;7.55;;
58760;SDS011;44529;47.464;19.014;2023-04-24T14:15:03;13.00;;;6.72;;
58760;SDS011;44529;47.464;19.014;2023-04-24T14:18:07;10.40;;;7.32;;
58760;SDS011;44529;47.464;19.014;2023-04-24T14:21:09;13.27;;;7.72;;
58760;SDS011;44529;47.464;19.014;2023-04-24T14:24:12;16.73;;;7.97;;
58760;SDS011;44529;47.464;19.014;2023-04-24T14:27:14;10.57;;;7.80;;
58760;SDS011;44529;47.464;19.014;2023-04-24T14:30:17;12.75;;;8.38;;
58760;SDS011;44529;47.464;19.014;2023-04-24T14:33:19;14.13;;;8.07;;
58760;SDS011;44529;47.464;19.014;2023-04-24T14:36:22;11.27;;;8.82;;
58760;SDS011;44529;47.464;19.014;2023-04-24T14:39:24;11.60;;;8.98;;
58760;SDS011;44529;47.464;19.014;2023-04-24T14:42:27;10.18;;;9.07;;
58760;SDS011;44529;47.464;19.014;2023-04-24T14:45:30;12.25;;;9.80;;
58760;SDS011;44529;47.464;19.014;2023-04-24T14:48:33;14.85;;;9.75;;
58760;SDS011;44529;47.464;19.014;2023-04-24T14:51:35;12.27;;;9.85;;
58760;SDS011;44529;47.464;19.014;2023-04-24T14:54:38;12.20;;;9.68;;
58760;SDS011;44529;47.464;19.014;2023-04-24T14:57:40;9.60;;;8.70;;
58760;SDS011;44529;47.464;19.014;2023-04-24T15:00:43;12.55;;;9.25;;
58760;SDS011;44529;47.464;19.014;2023-04-24T15:03:45;10.00;;;8.98;;
58760;SDS011;44529;47.464;19.014;2023-04-24T15:06:48;9.27;;;8.13;;
58760;SDS011;44529;47.464;19.014;2023-04-24T15:09:51;9.63;;;8.10;;
58760;SDS011;44529;47.464;19.014;2023-04-24T15:12:54;11.77;;;8.40;;
58760;SDS011;44529;47.464;19.014;2023-04-24T15:15:56;9.75;;;7.55;;
58760;SDS011;44529;47.464;19.014;2023-04-24T15:18:59;9.68;;;8.00;;
58760;SDS011;44529;47.464;19.014;2023-04-24T15:22:01;8.52;;;7.65;;
58760;SDS011;44529;47.464;19.014;2023-04-24T15:25:03;9.55;;;7.60;;
58760;SDS011;44529;47.464;19.014;2023-04-24T15:28:07;8.30;;;7.20;;
58760;SDS011;44529;47.464;19.014;2023-04-24T15:31:10;7.82;;;7.10;;
58760;SDS011;44529;47.464;19.014;2023-04-24T15:34:12;8.23;;;7.43;;
58760;SDS011;44529;47.464;19.014;2023-04-24T15:37:14;8.57;;;7.68;;
58760;SDS011;44529;47.464;19.014;2023-04-24T15:40:17;8.43;;;7.50;;
58760;SDS011;44529;47.464;19.014;2023-04-24T15:43:19;9.00;;;8.07;;
58760;SDS011;44529;47.464;19.014;2023-04-24T15:46:22;7.78;;;7.00;;
58760;SDS011;44529;47.464;19.014;2023-04-24T15:49:24;9.50;;;7.65;;
58760;SDS011;44529;47.464;19.014;2023-04-24T15:52:27;9.45;;;8.30;;
58760;SDS011;44529;47.464;19.014;2023-04-24T15:55:29;8.57;;;7.78;;
58760;SDS011;44529;47.464;19.014;2023-04-24T15:58:31;8.10;;;7.30;;
58760;SDS011;44529;47.464;19.014;2023-04-24T16:01:34;8.68;;;7.57;;
58760;SDS011;44529;47.464;19.014;2023-04-24T16:04:36;8.07;;;7.07;;
58760;SDS011;44529;47.464;19.014;2023-04-24T16:07:39;9.40;;;8.43;;
58760;SDS011;44529;47.464;19.014;2023-04-24T16:10:42;9.40;;;7.95;;
58760;SDS011;44529;47.464;19.014;2023-04-24T16:13:45;7.72;;;7.03;;
58760;SDS011;44529;47.464;19.014;2023-04-24T16:16:47;10.07;;;7.82;;
58760;SDS011;44529;47.464;19.014;2023-04-24T16:19:49;10.30;;;7.43;;
58760;SDS011;44529;47.464;19.014;2023-04-24T16:22:52;11.05;;;8.15;;
58760;SDS011;44529;47.464;19.014;2023-04-24T16:25:54;8.73;;;7.65;;
58760;SDS011;44529;47.464;19.014;2023-04-24T16:28:57;9.25;;;7.30;;
58760;SDS011;44529;47.464;19.014;2023-04-24T16:31:59;8.02;;;7.25;;
58760;SDS011;44529;47.464;19.014;2023-04-24T16:35:01;8.85;;;7.25;;
58760;SDS011;44529;47.464;19.014;2023-04-24T16:38:04;8.88;;;7.25;;
58760;SDS011;44529;47.464;19.014;2023-04-24T16:41:06;7.62;;;6.93;;
58760;SDS011;44529;47.464;19.014;2023-04-24T16:44:09;7.35;;;6.65;;
58760;SDS011;44529;47.464;19.014;2023-04-24T16:47:11;9.32;;;7.15;;
58760;SDS011;44529;47.464;19.014;2023-04-24T16:50:15;7.57;;;6.82;;
58760;SDS011;44529;47.464;19.014;2023-04-24T16:53:17;7.65;;;6.95;;
58760;SDS011;44529;47.464;19.014;2023-04-24T16:56:20;7.78;;;7.18;;
58760;SDS011;44529;47.464;19.014;2023-04-24T16:59:22;8.98;;;8.07;;
58760;SDS011;44529;47.464;19.014;2023-04-24T17:02:25;8.65;;;7.82;;
58760;SDS011;44529;47.464;19.014;2023-04-24T17:05:27;8.35;;;7.55;;
58760;SDS011;44529;47.464;19.014;2023-04-24T17:08:29;8.65;;;7.65;;
58760;SDS011;44529;47.464;19.014;2023-04-24T17:11:33;8.13;;;7.43;;
58760;SDS011;44529;47.464;19.014;2023-04-24T17:14:36;8.57;;;7.78;;
58760;SDS011;44529;47.464;19.014;2023-04-24T17:17:38;8.60;;;7.80;;
58760;SDS011;44529;47.464;19.014;2023-04-24T17:20:42;8.35;;;7.70;;
58760;SDS011;44529;47.464;19.014;2023-04-24T17:23:45;8.85;;;8.05;;
58760;SDS011;44529;47.464;19.014;2023-04-24T17:26:47;9.23;;;8.40;;
58760;SDS011;44529;47.464;19.014;2023-04-24T17:29:50;8.85;;;8.02;;
58760;SDS011;44529;47.464;19.014;2023-04-24T17:32:53;8.00;;;7.25;;
58760;SDS011;44529;47.464;19.014;2023-04-24T17:35:56;7.85;;;7.15;;
58760;SDS011;44529;47.464;19.014;2023-04-24T17:39:04;7.97;;;7.15;;
58760;SDS011;44529;47.464;19.014;2023-04-24T17:42:07;8.18;;;7.30;;
58760;SDS011;44529;47.464;19.014;2023-04-24T17:45:09;8.20;;;7.50;;
58760;SDS011;44529;47.464;19.014;2023-04-24T17:48:13;8.05;;;7.15;;
58760;SDS011;44529;47.464;19.014;2023-04-24T17:51:15;7.97;;;7.28;;
58760;SDS011;44529;47.464;19.014;2023-04-24T17:54:18;7.35;;;6.75;;
58760;SDS011;44529;47.464;19.014;2023-04-24T17:57:20;8.10;;;7.35;;
58760;SDS011;44529;47.464;19.014;2023-04-24T18:00:23;6.97;;;6.40;;